sensor_id;sensor_type;location;lat;lon;timestamp;P1;durP1;ratioP1;P2;durP2;ratioP2
59294;SDS011;45067;44.654;20.200;2022-12-26T00:00:54;61.35;;;34.65;;
59294;SDS011;45067;44.654;20.200;2022-12-26T00:03:20;53.05;;;32.83;;
59294;SDS011;45067;44.654;20.200;2022-12-26T00:05:46;60.95;;;31.77;;
59294;SDS011;45067;44.654;20.200;2022-12-26T00:08:12;60.40;;;34.63;;
59294;SDS011;45067;44.654;20.200;2022-12-26T00:10:38;55.08;;;32.75;;
59294;SDS011;45067;44.654;20.200;2022-12-26T00:13:04;49.13;;;29.35;;
59294;SDS011;45067;44.654;20.200;2022-12-26T00:15:30;51.15;;;29.73;;
59294;SDS011;45067;44.654;20.200;2022-12-26T00:17:56;46.80;;;28.02;;
59294;SDS011;45067;44.654;20.200;2022-12-26T00:20:22;54.33;;;30.45;;
59294;SDS011;45067;44.654;20.200;2022-12-26T00:22:49;56.17;;;32.50;;
59294;SDS011;45067;44.654;20.200;2022-12-26T00:25:15;49.78;;;29.52;;
59294;SDS011;45067;44.654;20.200;2022-12-26T00:27:41;39.38;;;24.52;;
59294;SDS011;45067;44.654;20.200;2022-12-26T00:30:07;43.08;;;25.52;;
59294;SDS011;45067;44.654;20.200;2022-12-26T00:32:35;35.47;;;20.50;;
59294;SDS011;45067;44.654;20.200;2022-12-26T00:35:01;23.88;;;14.80;;
59294;SDS011;45067;44.654;20.200;2022-12-26T00:37:27;28.40;;;16.13;;
59294;SDS011;45067;44.654;20.200;2022-12-26T00:39:53;39.75;;;19.40;;
59294;SDS011;45067;44.654;20.200;2022-12-26T00:42:20;32.03;;;16.45;;
59294;SDS011;45067;44.654;20.200;2022-12-26T00:44:46;30.27;;;15.63;;
59294;SDS011;45067;44.654;20.200;2022-12-26T00:47:12;27.65;;;15.38;;
59294;SDS011;45067;44.654;20.200;2022-12-26T00:49:38;27.73;;;15.70;;
59294;SDS011;45067;44.654;20.200;2022-12-26T00:52:04;24.55;;;15.10;;
59294;SDS011;45067;44.654;20.200;2022-12-26T00:54:30;28.95;;;17.60;;
59294;SDS011;45067;44.654;20.200;2022-12-26T00:56:59;26.67;;;15.27;;
59294;SDS011;45067;44.654;20.200;2022-12-26T00:59:25;26.55;;;16.38;;
59294;SDS011;45067;44.654;20.200;2022-12-26T01:01:51;35.30;;;21.77;;
59294;SDS011;45067;44.654;20.200;2022-12-26T01:04:17;50.00;;;30.23;;
59294;SDS011;45067;44.654;20.200;2022-12-26T01:06:43;57.25;;;33.47;;
59294;SDS011;45067;44.654;20.200;2022-12-26T01:09:09;49.75;;;29.20;;
59294;SDS011;45067;44.654;20.200;2022-12-26T01:11:55;48.83;;;29.52;;
59294;SDS011;45067;44.654;20.200;2022-12-26T01:14:21;56.47;;;34.83;;
59294;SDS011;45067;44.654;20.200;2022-12-26T01:16:47;51.25;;;31.48;;
59294;SDS011;45067;44.654;20.200;2022-12-26T01:19:13;53.78;;;31.67;;
59294;SDS011;45067;44.654;20.200;2022-12-26T01:21:40;53.63;;;31.98;;
59294;SDS011;45067;44.654;20.200;2022-12-26T01:24:07;38.25;;;23.25;;
59294;SDS011;45067;44.654;20.200;2022-12-26T01:26:33;48.13;;;23.55;;
59294;SDS011;45067;44.654;20.200;2022-12-26T01:28:59;43.72;;;25.60;;
59294;SDS011;45067;44.654;20.200;2022-12-26T01:31:26;39.25;;;23.20;;
59294;SDS011;45067;44.654;20.200;2022-12-26T01:33:52;36.92;;;22.85;;
59294;SDS011;45067;44.654;20.200;2022-12-26T01:36:18;38.63;;;22.52;;
59294;SDS011;45067;44.654;20.200;2022-12-26T01:38:44;34.58;;;20.65;;
59294;SDS011;45067;44.654;20.200;2022-12-26T01:41:10;34.65;;;21.30;;
59294;SDS011;45067;44.654;20.200;2022-12-26T01:46:23;35.13;;;22.48;;
59294;SDS011;45067;44.654;20.200;2022-12-26T01:48:50;37.33;;;21.23;;
59294;SDS011;45067;44.654;20.200;2022-12-26T01:51:18;36.67;;;22.02;;
59294;SDS011;45067;44.654;20.200;2022-12-26T01:53:46;37.03;;;21.35;;
59294;SDS011;45067;44.654;20.200;2022-12-26T01:56:33;37.72;;;21.48;;
59294;SDS011;45067;44.654;20.200;2022-12-26T01:59:09;31.92;;;20.88;;
59294;SDS011;45067;44.654;20.200;2022-12-26T02:01:37;35.08;;;20.42;;
59294;SDS011;45067;44.654;20.200;2022-12-26T02:04:04;36.05;;;20.40;;
59294;SDS011;45067;44.654;20.200;2022-12-26T02:06:50;29.75;;;20.13;;
59294;SDS011;45067;44.654;20.200;2022-12-26T02:09:16;32.42;;;19.77;;
59294;SDS011;45067;44.654;20.200;2022-12-26T02:11:47;33.60;;;21.80;;
59294;SDS011;45067;44.654;20.200;2022-12-26T02:14:14;35.13;;;22.90;;
59294;SDS011;45067;44.654;20.200;2022-12-26T02:16:40;35.13;;;22.00;;
59294;SDS011;45067;44.654;20.200;2022-12-26T02:19:09;36.95;;;21.63;;
59294;SDS011;45067;44.654;20.200;2022-12-26T02:27:31;36.28;;;22.45;;
59294;SDS011;45067;44.654;20.200;2022-12-26T02:54:46;31.55;;;20.02;;
59294;SDS011;45067;44.654;20.200;2022-12-26T02:58:11;33.47;;;20.63;;
59294;SDS011;45067;44.654;20.200;2022-12-26T03:01:03;31.48;;;19.77;;
59294;SDS011;45067;44.654;20.200;2022-12-26T03:03:49;38.03;;;21.83;;
59294;SDS011;45067;44.654;20.200;2022-12-26T03:06:35;40.45;;;21.92;;
59294;SDS011;45067;44.654;20.200;2022-12-26T03:09:24;33.30;;;19.90;;
59294;SDS011;45067;44.654;20.200;2022-12-26T03:15:15;34.25;;;20.38;;
59294;SDS011;45067;44.654;20.200;2022-12-26T03:17:51;40.70;;;21.23;;
59294;SDS011;45067;44.654;20.200;2022-12-26T03:20:19;35.83;;;21.23;;
59294;SDS011;45067;44.654;20.200;2022-12-26T03:25:20;32.58;;;19.73;;
59294;SDS011;45067;44.654;20.200;2022-12-26T03:28:07;30.52;;;20.13;;
59294;SDS011;45067;44.654;20.200;2022-12-26T03:30:33;34.55;;;20.40;;
59294;SDS011;45067;44.654;20.200;2022-12-26T03:33:26;31.70;;;20.00;;
59294;SDS011;45067;44.654;20.200;2022-12-26T03:36:12;32.92;;;19.42;;
59294;SDS011;45067;44.654;20.200;2022-12-26T03:38:46;30.50;;;19.55;;
59294;SDS011;45067;44.654;20.200;2022-12-26T03:41:23;32.50;;;19.13;;
59294;SDS011;45067;44.654;20.200;2022-12-26T03:44:31;30.40;;;19.95;;
59294;SDS011;45067;44.654;20.200;2022-12-26T03:53:16;32.47;;;20.63;;
59294;SDS011;45067;44.654;20.200;2022-12-26T03:59:10;36.05;;;20.50;;
59294;SDS011;45067;44.654;20.200;2022-12-26T04:01:56;34.88;;;20.95;;
59294;SDS011;45067;44.654;20.200;2022-12-26T04:04:43;31.67;;;20.65;;
59294;SDS011;45067;44.654;20.200;2022-12-26T04:07:32;34.70;;;21.83;;
59294;SDS011;45067;44.654;20.200;2022-12-26T04:10:20;32.75;;;20.58;;
59294;SDS011;45067;44.654;20.200;2022-12-26T04:13:07;31.33;;;21.50;;
59294;SDS011;45067;44.654;20.200;2022-12-26T04:16:00;30.17;;;20.10;;
59294;SDS011;45067;44.654;20.200;2022-12-26T04:21:34;30.20;;;20.20;;
59294;SDS011;45067;44.654;20.200;2022-12-26T04:24:24;34.47;;;20.73;;
59294;SDS011;45067;44.654;20.200;2022-12-26T04:27:20;29.55;;;19.63;;
59294;SDS011;45067;44.654;20.200;2022-12-26T04:30:06;30.55;;;18.95;;
59294;SDS011;45067;44.654;20.200;2022-12-26T04:32:52;32.75;;;19.98;;
59294;SDS011;45067;44.654;20.200;2022-12-26T04:35:49;32.28;;;19.02;;
59294;SDS011;45067;44.654;20.200;2022-12-26T04:38:42;29.30;;;19.42;;
59294;SDS011;45067;44.654;20.200;2022-12-26T04:41:28;35.45;;;19.67;;
59294;SDS011;45067;44.654;20.200;2022-12-26T04:44:14;32.70;;;18.70;;
59294;SDS011;45067;44.654;20.200;2022-12-26T04:46:42;34.67;;;20.42;;
59294;SDS011;45067;44.654;20.200;2022-12-26T04:49:11;35.67;;;19.38;;
59294;SDS011;45067;44.654;20.200;2022-12-26T04:51:57;28.40;;;18.17;;
59294;SDS011;45067;44.654;20.200;2022-12-26T04:54:23;26.27;;;18.30;;
59294;SDS011;45067;44.654;20.200;2022-12-26T04:56:54;30.83;;;18.92;;
59294;SDS011;45067;44.654;20.200;2022-12-26T04:59:21;30.60;;;19.42;;
59294;SDS011;45067;44.654;20.200;2022-12-26T05:01:47;32.00;;;18.63;;
59294;SDS011;45067;44.654;20.200;2022-12-26T05:04:32;26.25;;;18.10;;
59294;SDS011;45067;44.654;20.200;2022-12-26T05:07:21;27.17;;;18.00;;
59294;SDS011;45067;44.654;20.200;2022-12-26T05:10:07;27.77;;;17.83;;
59294;SDS011;45067;44.654;20.200;2022-12-26T05:15:24;28.58;;;20.13;;
59294;SDS011;45067;44.654;20.200;2022-12-26T05:17:50;28.45;;;19.23;;
59294;SDS011;45067;44.654;20.200;2022-12-26T05:20:38;27.33;;;19.05;;
59294;SDS011;45067;44.654;20.200;2022-12-26T05:23:23;29.00;;;19.15;;
59294;SDS011;45067;44.654;20.200;2022-12-26T05:26:20;26.42;;;17.85;;
59294;SDS011;45067;44.654;20.200;2022-12-26T05:29:15;26.30;;;17.65;;
59294;SDS011;45067;44.654;20.200;2022-12-26T05:31:41;24.98;;;17.73;;
59294;SDS011;45067;44.654;20.200;2022-12-26T05:34:07;25.92;;;17.60;;
59294;SDS011;45067;44.654;20.200;2022-12-26T05:36:42;25.73;;;17.85;;
59294;SDS011;45067;44.654;20.200;2022-12-26T05:39:11;26.52;;;18.02;;
59294;SDS011;45067;44.654;20.200;2022-12-26T05:41:37;29.13;;;19.02;;
59294;SDS011;45067;44.654;20.200;2022-12-26T05:44:04;27.85;;;17.48;;
59294;SDS011;45067;44.654;20.200;2022-12-26T05:46:30;26.95;;;18.83;;
59294;SDS011;45067;44.654;20.200;2022-12-26T05:48:56;27.05;;;18.40;;
59294;SDS011;45067;44.654;20.200;2022-12-26T05:51:23;30.13;;;19.40;;
59294;SDS011;45067;44.654;20.200;2022-12-26T05:53:49;26.65;;;18.55;;
59294;SDS011;45067;44.654;20.200;2022-12-26T05:56:16;31.20;;;18.30;;
59294;SDS011;45067;44.654;20.200;2022-12-26T05:58:42;27.58;;;18.77;;
59294;SDS011;45067;44.654;20.200;2022-12-26T06:01:13;29.70;;;18.88;;
59294;SDS011;45067;44.654;20.200;2022-12-26T06:06:07;30.67;;;18.25;;
59294;SDS011;45067;44.654;20.200;2022-12-26T06:08:34;28.80;;;19.02;;
59294;SDS011;45067;44.654;20.200;2022-12-26T06:11:04;29.90;;;18.88;;
59294;SDS011;45067;44.654;20.200;2022-12-26T06:13:40;27.20;;;18.00;;
59294;SDS011;45067;44.654;20.200;2022-12-26T06:16:07;27.27;;;18.52;;
59294;SDS011;45067;44.654;20.200;2022-12-26T06:18:37;31.38;;;18.83;;
59294;SDS011;45067;44.654;20.200;2022-12-26T06:23:30;26.83;;;17.52;;
59294;SDS011;45067;44.654;20.200;2022-12-26T06:25:57;28.33;;;19.50;;
59294;SDS011;45067;44.654;20.200;2022-12-26T06:28:29;28.75;;;18.70;;
59294;SDS011;45067;44.654;20.200;2022-12-26T06:31:04;31.60;;;20.48;;
59294;SDS011;45067;44.654;20.200;2022-12-26T06:33:30;27.48;;;19.30;;
59294;SDS011;45067;44.654;20.200;2022-12-26T06:36:07;27.42;;;19.23;;
59294;SDS011;45067;44.654;20.200;2022-12-26T06:38:34;30.08;;;20.63;;
59294;SDS011;45067;44.654;20.200;2022-12-26T06:41:00;33.20;;;20.65;;
59294;SDS011;45067;44.654;20.200;2022-12-26T06:46:12;30.05;;;19.77;;
59294;SDS011;45067;44.654;20.200;2022-12-26T06:48:38;30.05;;;19.25;;
59294;SDS011;45067;44.654;20.200;2022-12-26T06:51:05;30.58;;;19.70;;
59294;SDS011;45067;44.654;20.200;2022-12-26T06:53:32;27.15;;;18.63;;
59294;SDS011;45067;44.654;20.200;2022-12-26T06:56:08;28.98;;;19.25;;
59294;SDS011;45067;44.654;20.200;2022-12-26T06:58:34;31.60;;;18.55;;
59294;SDS011;45067;44.654;20.200;2022-12-26T07:01:08;33.58;;;20.42;;
59294;SDS011;45067;44.654;20.200;2022-12-26T07:03:35;29.95;;;19.15;;
59294;SDS011;45067;44.654;20.200;2022-12-26T07:06:04;34.38;;;20.00;;
59294;SDS011;45067;44.654;20.200;2022-12-26T07:08:31;31.38;;;19.52;;
59294;SDS011;45067;44.654;20.200;2022-12-26T07:10:57;31.52;;;20.17;;
59294;SDS011;45067;44.654;20.200;2022-12-26T07:13:23;28.10;;;19.10;;
59294;SDS011;45067;44.654;20.200;2022-12-26T07:15:49;27.80;;;18.30;;
59294;SDS011;45067;44.654;20.200;2022-12-26T07:18:15;32.15;;;18.55;;
59294;SDS011;45067;44.654;20.200;2022-12-26T07:20:41;29.83;;;19.45;;
59294;SDS011;45067;44.654;20.200;2022-12-26T07:23:07;31.90;;;20.30;;
59294;SDS011;45067;44.654;20.200;2022-12-26T07:25:35;27.40;;;18.40;;
59294;SDS011;45067;44.654;20.200;2022-12-26T07:28:01;27.33;;;18.88;;
59294;SDS011;45067;44.654;20.200;2022-12-26T07:30:27;30.50;;;19.58;;
59294;SDS011;45067;44.654;20.200;2022-12-26T07:32:53;30.73;;;19.25;;
59294;SDS011;45067;44.654;20.200;2022-12-26T07:35:19;33.25;;;20.55;;
59294;SDS011;45067;44.654;20.200;2022-12-26T07:37:45;30.17;;;19.45;;
59294;SDS011;45067;44.654;20.200;2022-12-26T07:40:11;33.58;;;20.73;;
59294;SDS011;45067;44.654;20.200;2022-12-26T07:42:37;30.88;;;19.95;;
59294;SDS011;45067;44.654;20.200;2022-12-26T07:45:04;34.90;;;19.92;;
59294;SDS011;45067;44.654;20.200;2022-12-26T07:47:30;32.25;;;19.98;;
59294;SDS011;45067;44.654;20.200;2022-12-26T07:49:56;33.42;;;20.20;;
59294;SDS011;45067;44.654;20.200;2022-12-26T07:52:22;33.25;;;20.48;;
59294;SDS011;45067;44.654;20.200;2022-12-26T07:54:48;35.05;;;21.00;;
59294;SDS011;45067;44.654;20.200;2022-12-26T07:57:14;32.42;;;19.05;;
59294;SDS011;45067;44.654;20.200;2022-12-26T07:59:52;37.80;;;22.50;;
59294;SDS011;45067;44.654;20.200;2022-12-26T08:02:18;39.03;;;20.40;;
59294;SDS011;45067;44.654;20.200;2022-12-26T08:04:44;36.22;;;22.25;;
59294;SDS011;45067;44.654;20.200;2022-12-26T08:07:10;39.33;;;21.48;;
59294;SDS011;45067;44.654;20.200;2022-12-26T08:09:36;31.35;;;20.40;;
59294;SDS011;45067;44.654;20.200;2022-12-26T08:12:09;33.15;;;20.17;;
59294;SDS011;45067;44.654;20.200;2022-12-26T08:14:41;29.63;;;17.98;;
59294;SDS011;45067;44.654;20.200;2022-12-26T08:17:07;31.02;;;19.55;;
59294;SDS011;45067;44.654;20.200;2022-12-26T08:19:33;31.60;;;19.90;;
59294;SDS011;45067;44.654;20.200;2022-12-26T08:21:59;31.95;;;20.15;;
59294;SDS011;45067;44.654;20.200;2022-12-26T08:24:25;28.65;;;18.85;;
59294;SDS011;45067;44.654;20.200;2022-12-26T08:26:51;27.10;;;17.75;;
59294;SDS011;45067;44.654;20.200;2022-12-26T08:29:18;26.20;;;17.90;;
59294;SDS011;45067;44.654;20.200;2022-12-26T08:31:44;28.10;;;17.67;;
59294;SDS011;45067;44.654;20.200;2022-12-26T08:34:10;25.30;;;17.83;;
59294;SDS011;45067;44.654;20.200;2022-12-26T08:36:37;26.65;;;16.75;;
59294;SDS011;45067;44.654;20.200;2022-12-26T08:39:03;25.52;;;17.27;;
59294;SDS011;45067;44.654;20.200;2022-12-26T08:41:30;23.50;;;17.23;;
59294;SDS011;45067;44.654;20.200;2022-12-26T08:43:56;24.50;;;16.48;;
59294;SDS011;45067;44.654;20.200;2022-12-26T08:46:22;30.55;;;17.98;;
59294;SDS011;45067;44.654;20.200;2022-12-26T08:48:48;26.88;;;18.38;;
59294;SDS011;45067;44.654;20.200;2022-12-26T08:51:15;24.88;;;18.30;;
59294;SDS011;45067;44.654;20.200;2022-12-26T08:53:42;28.63;;;18.15;;
59294;SDS011;45067;44.654;20.200;2022-12-26T08:56:11;30.85;;;17.35;;
59294;SDS011;45067;44.654;20.200;2022-12-26T08:58:37;30.75;;;17.95;;
59294;SDS011;45067;44.654;20.200;2022-12-26T09:01:10;27.67;;;18.30;;
59294;SDS011;45067;44.654;20.200;2022-12-26T09:03:36;32.30;;;21.15;;
59294;SDS011;45067;44.654;20.200;2022-12-26T09:06:03;31.98;;;20.75;;
59294;SDS011;45067;44.654;20.200;2022-12-26T09:08:30;37.55;;;21.30;;
59294;SDS011;45067;44.654;20.200;2022-12-26T09:11:05;33.70;;;21.33;;
59294;SDS011;45067;44.654;20.200;2022-12-26T09:13:32;28.77;;;19.92;;
59294;SDS011;45067;44.654;20.200;2022-12-26T09:16:12;31.98;;;21.10;;
59294;SDS011;45067;44.654;20.200;2022-12-26T09:18:38;33.75;;;20.20;;
59294;SDS011;45067;44.654;20.200;2022-12-26T09:21:05;30.40;;;19.98;;
59294;SDS011;45067;44.654;20.200;2022-12-26T09:23:32;30.83;;;19.98;;
59294;SDS011;45067;44.654;20.200;2022-12-26T09:26:03;31.50;;;19.52;;
59294;SDS011;45067;44.654;20.200;2022-12-26T09:28:30;30.50;;;19.48;;
59294;SDS011;45067;44.654;20.200;2022-12-26T09:31:03;34.05;;;20.20;;
59294;SDS011;45067;44.654;20.200;2022-12-26T09:33:30;30.05;;;19.85;;
59294;SDS011;45067;44.654;20.200;2022-12-26T09:35:57;31.92;;;20.90;;
59294;SDS011;45067;44.654;20.200;2022-12-26T09:38:23;33.25;;;20.40;;
59294;SDS011;45067;44.654;20.200;2022-12-26T09:46:02;31.17;;;19.95;;
59294;SDS011;45067;44.654;20.200;2022-12-26T09:48:38;30.77;;;20.35;;
59294;SDS011;45067;44.654;20.200;2022-12-26T09:51:06;32.00;;;19.15;;
59294;SDS011;45067;44.654;20.200;2022-12-26T09:53:34;30.63;;;18.60;;
59294;SDS011;45067;44.654;20.200;2022-12-26T09:56:03;30.30;;;18.10;;
59294;SDS011;45067;44.654;20.200;2022-12-26T10:03:25;21.88;;;14.18;;
59294;SDS011;45067;44.654;20.200;2022-12-26T10:25:50;22.13;;;13.93;;
59294;SDS011;45067;44.654;20.200;2022-12-26T10:28:20;21.05;;;12.35;;
59294;SDS011;45067;44.654;20.200;2022-12-26T10:30:50;19.45;;;13.07;;
59294;SDS011;45067;44.654;20.200;2022-12-26T10:33:19;21.30;;;12.80;;
59294;SDS011;45067;44.654;20.200;2022-12-26T10:35:47;20.17;;;12.40;;
59294;SDS011;45067;44.654;20.200;2022-12-26T10:41:13;18.13;;;12.30;;
59294;SDS011;45067;44.654;20.200;2022-12-26T10:43:42;19.98;;;13.57;;
59294;SDS011;45067;44.654;20.200;2022-12-26T10:48:35;20.00;;;13.15;;
59294;SDS011;45067;44.654;20.200;2022-12-26T10:51:01;16.55;;;11.82;;
59294;SDS011;45067;44.654;20.200;2022-12-26T10:53:27;18.65;;;13.10;;
59294;SDS011;45067;44.654;20.200;2022-12-26T10:55:54;16.65;;;12.73;;
59294;SDS011;45067;44.654;20.200;2022-12-26T10:58:31;15.70;;;11.35;;
59294;SDS011;45067;44.654;20.200;2022-12-26T11:01:43;14.07;;;11.65;;
59294;SDS011;45067;44.654;20.200;2022-12-26T11:03:54;19.42;;;13.55;;
59294;SDS011;45067;44.654;20.200;2022-12-26T11:06:21;17.98;;;14.02;;
59294;SDS011;45067;44.654;20.200;2022-12-26T11:08:49;17.42;;;13.45;;
59294;SDS011;45067;44.654;20.200;2022-12-26T11:13:54;17.63;;;11.70;;
59294;SDS011;45067;44.654;20.200;2022-12-26T11:16:38;12.60;;;11.07;;
59294;SDS011;45067;44.654;20.200;2022-12-26T11:19:23;15.35;;;11.65;;
59294;SDS011;45067;44.654;20.200;2022-12-26T11:21:50;13.77;;;10.68;;
59294;SDS011;45067;44.654;20.200;2022-12-26T11:24:17;14.85;;;11.30;;
59294;SDS011;45067;44.654;20.200;2022-12-26T11:26:44;11.55;;;10.35;;
59294;SDS011;45067;44.654;20.200;2022-12-26T11:29:11;12.23;;;10.45;;
59294;SDS011;45067;44.654;20.200;2022-12-26T11:31:41;12.27;;;10.50;;
59294;SDS011;45067;44.654;20.200;2022-12-26T11:34:08;14.18;;;10.23;;
59294;SDS011;45067;44.654;20.200;2022-12-26T11:36:35;13.57;;;9.30;;
59294;SDS011;45067;44.654;20.200;2022-12-26T11:39:05;11.38;;;9.38;;
59294;SDS011;45067;44.654;20.200;2022-12-26T11:41:33;11.80;;;9.67;;
59294;SDS011;45067;44.654;20.200;2022-12-26T11:51:41;13.55;;;9.40;;
59294;SDS011;45067;44.654;20.200;2022-12-26T11:56:58;10.55;;;9.45;;
59294;SDS011;45067;44.654;20.200;2022-12-26T11:59:24;13.18;;;9.43;;
59294;SDS011;45067;44.654;20.200;2022-12-26T12:04:35;10.70;;;9.63;;
59294;SDS011;45067;44.654;20.200;2022-12-26T12:07:08;10.75;;;9.10;;
59294;SDS011;45067;44.654;20.200;2022-12-26T12:10:00;14.88;;;10.55;;
59294;SDS011;45067;44.654;20.200;2022-12-26T12:15:15;11.43;;;9.95;;
59294;SDS011;45067;44.654;20.200;2022-12-26T12:18:05;13.50;;;10.13;;
59294;SDS011;45067;44.654;20.200;2022-12-26T12:30:48;11.05;;;9.30;;
59294;SDS011;45067;44.654;20.200;2022-12-26T12:55:41;8.55;;;7.65;;
59294;SDS011;45067;44.654;20.200;2022-12-26T12:58:16;8.88;;;8.00;;
59294;SDS011;45067;44.654;20.200;2022-12-26T13:00:45;8.10;;;7.30;;
59294;SDS011;45067;44.654;20.200;2022-12-26T13:03:25;7.83;;;6.77;;
59294;SDS011;45067;44.654;20.200;2022-12-26T13:08:49;8.35;;;7.45;;
59294;SDS011;45067;44.654;20.200;2022-12-26T13:11:19;9.93;;;7.60;;
59294;SDS011;45067;44.654;20.200;2022-12-26T13:13:48;8.98;;;6.50;;
59294;SDS011;45067;44.654;20.200;2022-12-26T13:16:16;6.80;;;6.10;;
59294;SDS011;45067;44.654;20.200;2022-12-26T13:18:47;7.07;;;6.25;;
59294;SDS011;45067;44.654;20.200;2022-12-26T13:21:14;7.68;;;6.78;;
59294;SDS011;45067;44.654;20.200;2022-12-26T13:23:44;8.95;;;6.13;;
59294;SDS011;45067;44.654;20.200;2022-12-26T13:26:37;10.18;;;6.28;;
59294;SDS011;45067;44.654;20.200;2022-12-26T13:32:39;20.08;;;9.45;;
59294;SDS011;45067;44.654;20.200;2022-12-26T13:34:59;8.60;;;6.25;;
59294;SDS011;45067;44.654;20.200;2022-12-26T13:39:58;10.18;;;7.07;;
59294;SDS011;45067;44.654;20.200;2022-12-26T13:42:44;8.65;;;5.70;;
59294;SDS011;45067;44.654;20.200;2022-12-26T13:51:02;12.63;;;8.27;;
59294;SDS011;45067;44.654;20.200;2022-12-26T13:53:30;15.70;;;9.18;;
59294;SDS011;45067;44.654;20.200;2022-12-26T13:56:01;11.35;;;8.20;;
59294;SDS011;45067;44.654;20.200;2022-12-26T14:06:29;12.02;;;8.48;;
59294;SDS011;45067;44.654;20.200;2022-12-26T14:11:34;16.50;;;11.55;;
59294;SDS011;45067;44.654;20.200;2022-12-26T14:28:01;17.52;;;11.15;;
59294;SDS011;45067;44.654;20.200;2022-12-26T14:41:08;28.50;;;13.93;;
59294;SDS011;45067;44.654;20.200;2022-12-26T14:49:47;34.13;;;17.17;;
59294;SDS011;45067;44.654;20.200;2022-12-26T14:54:50;26.25;;;14.80;;
59294;SDS011;45067;44.654;20.200;2022-12-26T14:57:39;34.10;;;14.43;;
59294;SDS011;45067;44.654;20.200;2022-12-26T15:05:36;27.70;;;16.60;;
59294;SDS011;45067;44.654;20.200;2022-12-26T15:35:29;42.05;;;25.90;;
59294;SDS011;45067;44.654;20.200;2022-12-26T15:40:27;26.60;;;16.92;;
59294;SDS011;45067;44.654;20.200;2022-12-26T15:48:36;28.98;;;19.38;;
59294;SDS011;45067;44.654;20.200;2022-12-26T15:56:18;33.60;;;20.33;;
59294;SDS011;45067;44.654;20.200;2022-12-26T16:01:35;35.00;;;18.98;;
59294;SDS011;45067;44.654;20.200;2022-12-26T16:14:12;44.83;;;26.33;;
59294;SDS011;45067;44.654;20.200;2022-12-26T16:16:48;44.50;;;27.25;;
59294;SDS011;45067;44.654;20.200;2022-12-26T16:19:15;54.17;;;31.10;;
59294;SDS011;45067;44.654;20.200;2022-12-26T16:21:43;36.63;;;21.63;;
59294;SDS011;45067;44.654;20.200;2022-12-26T16:24:29;34.58;;;21.25;;
59294;SDS011;45067;44.654;20.200;2022-12-26T16:26:58;26.60;;;17.33;;
59294;SDS011;45067;44.654;20.200;2022-12-26T16:29:25;22.38;;;16.50;;
59294;SDS011;45067;44.654;20.200;2022-12-26T16:32:00;28.20;;;17.58;;
59294;SDS011;45067;44.654;20.200;2022-12-26T16:34:26;28.70;;;18.70;;
59294;SDS011;45067;44.654;20.200;2022-12-26T16:36:53;26.77;;;18.33;;
59294;SDS011;45067;44.654;20.200;2022-12-26T16:39:20;26.55;;;18.42;;
59294;SDS011;45067;44.654;20.200;2022-12-26T16:41:57;28.27;;;18.23;;
59294;SDS011;45067;44.654;20.200;2022-12-26T16:44:28;27.88;;;18.85;;
59294;SDS011;45067;44.654;20.200;2022-12-26T16:46:55;27.92;;;18.98;;
59294;SDS011;45067;44.654;20.200;2022-12-26T16:49:21;27.83;;;18.98;;
59294;SDS011;45067;44.654;20.200;2022-12-26T16:51:48;27.63;;;19.08;;
59294;SDS011;45067;44.654;20.200;2022-12-26T16:59:45;26.40;;;18.65;;
59294;SDS011;45067;44.654;20.200;2022-12-26T17:02:17;28.65;;;20.35;;
59294;SDS011;45067;44.654;20.200;2022-12-26T17:04:51;35.20;;;21.30;;
59294;SDS011;45067;44.654;20.200;2022-12-26T17:07:18;30.48;;;19.90;;
59294;SDS011;45067;44.654;20.200;2022-12-26T17:09:46;29.20;;;19.85;;
59294;SDS011;45067;44.654;20.200;2022-12-26T17:12:32;29.58;;;19.95;;
59294;SDS011;45067;44.654;20.200;2022-12-26T17:21:14;31.30;;;20.45;;
59294;SDS011;45067;44.654;20.200;2022-12-26T17:23:41;28.48;;;19.23;;
59294;SDS011;45067;44.654;20.200;2022-12-26T17:26:17;29.50;;;20.35;;
59294;SDS011;45067;44.654;20.200;2022-12-26T17:28:44;34.08;;;21.38;;
59294;SDS011;45067;44.654;20.200;2022-12-26T17:34:16;31.23;;;21.70;;
59294;SDS011;45067;44.654;20.200;2022-12-26T17:36:44;28.58;;;20.10;;
59294;SDS011;45067;44.654;20.200;2022-12-26T17:39:11;30.50;;;20.08;;
59294;SDS011;45067;44.654;20.200;2022-12-26T17:41:41;29.42;;;19.90;;
59294;SDS011;45067;44.654;20.200;2022-12-26T17:49:55;30.63;;;19.45;;
59294;SDS011;45067;44.654;20.200;2022-12-26T17:52:23;30.83;;;20.38;;
59294;SDS011;45067;44.654;20.200;2022-12-26T17:54:50;30.58;;;20.35;;
59294;SDS011;45067;44.654;20.200;2022-12-26T17:57:24;30.45;;;20.30;;
59294;SDS011;45067;44.654;20.200;2022-12-26T17:59:51;28.20;;;20.17;;
59294;SDS011;45067;44.654;20.200;2022-12-26T18:05:21;32.97;;;21.45;;
59294;SDS011;45067;44.654;20.200;2022-12-26T18:07:48;33.97;;;21.23;;
59294;SDS011;45067;44.654;20.200;2022-12-26T18:10:20;35.63;;;22.52;;
59294;SDS011;45067;44.654;20.200;2022-12-26T18:12:47;32.75;;;21.23;;
59294;SDS011;45067;44.654;20.200;2022-12-26T18:15:13;38.38;;;23.02;;
59294;SDS011;45067;44.654;20.200;2022-12-26T18:17:39;35.67;;;22.88;;
59294;SDS011;45067;44.654;20.200;2022-12-26T18:20:06;33.80;;;20.35;;
59294;SDS011;45067;44.654;20.200;2022-12-26T18:22:32;38.08;;;22.55;;
59294;SDS011;45067;44.654;20.200;2022-12-26T18:24:58;33.13;;;21.48;;
59294;SDS011;45067;44.654;20.200;2022-12-26T18:27:31;35.65;;;22.63;;
59294;SDS011;45067;44.654;20.200;2022-12-26T18:29:58;37.78;;;22.10;;
59294;SDS011;45067;44.654;20.200;2022-12-26T18:35:28;39.47;;;21.83;;
59294;SDS011;45067;44.654;20.200;2022-12-26T18:37:54;34.30;;;21.88;;
59294;SDS011;45067;44.654;20.200;2022-12-26T18:40:27;33.50;;;22.20;;
59294;SDS011;45067;44.654;20.200;2022-12-26T18:42:54;39.63;;;23.02;;
59294;SDS011;45067;44.654;20.200;2022-12-26T18:45:20;37.85;;;22.73;;
59294;SDS011;45067;44.654;20.200;2022-12-26T18:47:46;34.47;;;20.92;;
59294;SDS011;45067;44.654;20.200;2022-12-26T18:50:13;32.85;;;21.70;;
59294;SDS011;45067;44.654;20.200;2022-12-26T18:52:39;29.85;;;19.48;;
59294;SDS011;45067;44.654;20.200;2022-12-26T18:55:06;32.55;;;20.23;;
59294;SDS011;45067;44.654;20.200;2022-12-26T18:57:32;39.17;;;23.08;;
59294;SDS011;45067;44.654;20.200;2022-12-26T18:59:58;39.83;;;23.67;;
59294;SDS011;45067;44.654;20.200;2022-12-26T19:05:29;36.05;;;22.45;;
59294;SDS011;45067;44.654;20.200;2022-12-26T19:07:57;38.92;;;25.92;;
59294;SDS011;45067;44.654;20.200;2022-12-26T19:10:24;38.03;;;25.02;;
59294;SDS011;45067;44.654;20.200;2022-12-26T19:12:51;40.78;;;24.83;;
59294;SDS011;45067;44.654;20.200;2022-12-26T19:15:17;38.33;;;23.30;;
59294;SDS011;45067;44.654;20.200;2022-12-26T19:20:47;38.47;;;24.90;;
59294;SDS011;45067;44.654;20.200;2022-12-26T19:23:13;39.35;;;24.30;;
59294;SDS011;45067;44.654;20.200;2022-12-26T19:25:39;43.40;;;25.77;;
59294;SDS011;45067;44.654;20.200;2022-12-26T19:28:05;39.63;;;25.63;;
59294;SDS011;45067;44.654;20.200;2022-12-26T19:30:31;40.70;;;26.70;;